Time;durP1;ratioP1;P1;durP2;ratioP2;P2;SDS_P1;SDS_P2;PMS_P1;PMS_P2;Temp;Humidity;BMP_temperature;BMP_pressure;BME280_temperature;BME280_humidity;BME280_pressure;Samples;Min_cycle;Max_cycle;Signal;HPM_P1;HPM_P2
2021/01/24 00:01:56;;;;;;;12.33;3.90;;;4.00;99.90;;;;;;10135094;28;82707;-73
2021/01/24 00:06:58;;;;;;;4.83;2.40;;;4.00;99.90;;;;;;10141883;28;83024;-73
2021/01/24 00:12:00;;;;;;;4.37;2.10;;;4.00;99.90;;;;;;10147833;28;82467;-73
2021/01/24 00:17:02;;;;;;;1.70;1.23;;;4.10;99.90;;;;;;10147578;28;82599;-73
2021/01/24 00:22:04;;;;;;;2.47;1.50;;;4.10;99.90;;;;;;10125682;28;84959;-73
2021/01/24 00:27:06;;;;;;;1.83;1.30;;;4.10;99.90;;;;;;10136899;28;83729;-73
2021/01/24 00:32:08;;;;;;;1.23;1.00;;;4.10;99.90;;;;;;10137797;28;81963;-73
2021/01/24 00:37:11;;;;;;;2.03;1.30;;;4.10;99.90;;;;;;10137701;28;83108;-73
2021/01/24 00:42:13;;;;;;;1.23;1.10;;;4.00;99.90;;;;;;10144998;28;83197;-73
2021/01/24 00:47:14;;;;;;;1.20;1.10;;;4.00;99.90;;;;;;10125081;28;83696;-73
2021/01/24 00:52:17;;;;;;;1.20;1.10;;;3.90;99.90;;;;;;10141942;28;83351;-73
2021/01/24 00:57:19;;;;;;;1.30;1.20;;;3.90;99.90;;;;;;10126453;28;82881;-73
2021/01/24 01:02:20;;;;;;;5.27;1.80;;;3.90;99.90;;;;;;10131146;28;82490;-73
2021/01/24 01:07:23;;;;;;;2.33;1.20;;;4.00;99.90;;;;;;10162318;28;83801;-74
2021/01/24 01:12:24;;;;;;;5.40;1.50;;;4.00;99.90;;;;;;10144671;28;83320;-73
2021/01/24 01:17:26;;;;;;;1.90;1.20;;;4.00;99.90;;;;;;10147933;28;81780;-73
2021/01/24 01:22:29;;;;;;;2.50;0.80;;;4.00;99.90;;;;;;10144397;28;82512;-72
2021/01/24 01:27:30;;;;;;;3.43;1.03;;;4.10;99.90;;;;;;10123725;28;85321;-73
2021/01/24 01:32:32;;;;;;;1.07;0.97;;;4.10;99.90;;;;;;10150202;28;82609;-72
2021/01/24 01:37:35;;;;;;;1.30;1.20;;;4.10;99.90;;;;;;10152217;28;82550;-72
2021/01/24 01:42:37;;;;;;;1.13;0.90;;;4.00;99.90;;;;;;10144070;28;83447;-73
2021/01/24 01:47:40;;;;;;;1.23;1.10;;;4.00;99.90;;;;;;10135340;28;81775;-73
2021/01/24 01:52:42;;;;;;;4.57;1.50;;;4.10;99.90;;;;;;10140291;28;84411;-73
2021/01/24 01:57:44;;;;;;;1.10;1.00;;;4.10;99.90;;;;;;10142735;28;83625;-73
2021/01/24 02:03:09;;;;;;;2.33;1.53;;;4.00;99.90;;;;;;10147530;28;84117;-73
2021/01/24 02:08:16;;;;;;;3.70;2.20;;;4.00;99.90;;;;;;10134466;28;82763;-73
2021/01/24 02:13:27;;;;;;;13.57;1.80;;;3.90;99.90;;;;;;10130038;28;83618;-73
2021/01/24 02:18:33;;;;;;;1.83;1.57;;;4.00;99.90;;;;;;10138314;28;82640;-73
2021/01/24 02:23:38;;;;;;;4.40;1.50;;;4.00;99.90;;;;;;10138086;28;83629;-73
2021/01/24 02:28:55;;;;;;;1.67;1.37;;;3.80;99.90;;;;;;10126151;28;81973;-73
2021/01/24 02:33:58;;;;;;;1.83;1.40;;;3.80;99.90;;;;;;10149669;28;82455;-73
2021/01/24 02:39:03;;;;;;;2.57;1.30;;;3.70;99.90;;;;;;10150584;28;82514;-72
2021/01/24 02:44:07;;;;;;;1.30;1.00;;;3.60;99.90;;;;;;10139406;28;83343;-73
2021/01/24 02:49:12;;;;;;;1.03;0.93;;;3.60;99.90;;;;;;10127178;28;83368;-73
2021/01/24 02:54:15;;;;;;;1.27;1.10;;;3.50;99.90;;;;;;10136180;28;83480;-73
2021/01/24 02:59:17;;;;;;;3.40;1.00;;;3.40;99.90;;;;;;10140291;28;82938;-73
2021/01/24 03:04:19;;;;;;;0.93;0.93;;;3.30;99.90;;;;;;10100648;28;83929;-73
2021/01/24 03:09:21;;;;;;;1.20;1.10;;;3.20;99.90;;;;;;10098129;28;82921;-73
2021/01/24 03:14:26;;;;;;;0.80;0.80;;;3.10;99.90;;;;;;10104269;28;83816;-72
2021/01/24 03:19:31;;;;;;;0.90;0.90;;;3.00;99.90;;;;;;10096466;28;84157;-73
2021/01/24 03:24:33;;;;;;;0.90;0.90;;;3.00;99.90;;;;;;10097280;28;83668;-73
2021/01/24 03:29:36;;;;;;;1.00;0.90;;;2.80;99.90;;;;;;10093858;28;83369;-73
2021/01/24 03:34:41;;;;;;;0.90;0.90;;;2.70;99.90;;;;;;10094773;28;83801;-73
2021/01/24 03:39:42;;;;;;;1.00;0.90;;;2.60;99.90;;;;;;10092429;28;84017;-73
2021/01/24 03:44:44;;;;;;;1.07;0.90;;;2.50;99.90;;;;;;10091601;28;84848;-73
2021/01/24 03:49:46;;;;;;;1.20;0.80;;;2.40;99.90;;;;;;10094246;28;83914;-73
2021/01/24 03:54:48;;;;;;;1.00;1.00;;;2.20;99.90;;;;;;10094506;28;83795;-73
2021/01/24 03:59:51;;;;;;;1.00;0.90;;;2.20;99.90;;;;;;10093074;28;84979;-72
2021/01/24 04:04:54;;;;;;;1.97;1.30;;;2.10;99.90;;;;;;10094943;28;83896;-73
2021/01/24 04:09:56;;;;;;;5.37;2.50;;;2.00;99.90;;;;;;10091856;28;83899;-72
2021/01/24 04:14:57;;;;;;;5.70;2.60;;;1.90;99.90;;;;;;10076235;28;85277;-73
2021/01/24 04:20:00;;;;;;;1.17;1.00;;;1.90;99.90;;;;;;10079546;28;83176;-73
2021/01/24 04:25:01;;;;;;;1.13;1.03;;;1.90;99.90;;;;;;10095237;28;84224;-73
2021/01/24 04:30:04;;;;;;;3.43;1.00;;;1.80;99.90;;;;;;10102749;28;86173;-73
2021/01/24 04:35:08;;;;;;;1.30;1.10;;;1.70;99.90;;;;;;10103532;28;84877;-72
2021/01/24 04:40:11;;;;;;;1.93;1.40;;;1.70;99.90;;;;;;10101569;28;85272;-73
2021/01/24 04:45:13;;;;;;;1.90;1.40;;;1.60;99.90;;;;;;10096581;28;86682;-73
2021/01/24 04:50:16;;;;;;;1.57;1.20;;;1.60;99.90;;;;;;10099332;28;83941;-73
2021/01/24 04:55:18;;;;;;;1.53;1.10;;;1.60;99.90;;;;;;10097821;28;83952;-72
2021/01/24 05:00:20;;;;;;;1.20;1.10;;;1.60;99.90;;;;;;10100497;28;84082;-73
2021/01/24 05:05:23;;;;;;;2.27;1.07;;;1.50;99.90;;;;;;10101430;28;83663;-73
2021/01/24 05:10:26;;;;;;;1.87;1.10;;;1.50;99.90;;;;;;10099927;28;83420;-72
2021/01/24 05:15:28;;;;;;;1.77;1.27;;;1.50;99.90;;;;;;10101582;28;83814;-73
2021/01/24 05:20:32;;;;;;;1.47;1.17;;;1.50;99.90;;;;;;10102062;28;84125;-73
2021/01/24 05:25:34;;;;;;;1.37;1.00;;;1.50;99.90;;;;;;10097373;28;84525;-73
2021/01/24 05:30:35;;;;;;;1.20;1.10;;;1.50;99.90;;;;;;10080965;28;84269;-73
2021/01/24 05:35:50;;;;;;;0.90;0.90;;;1.60;99.90;;;;;;10108623;28;87282;-72
2021/01/24 05:40:52;;;;;;;1.23;1.10;;;1.70;99.90;;;;;;10098013;28;83961;-73
2021/01/24 05:45:54;;;;;;;2.23;1.20;;;1.70;99.90;;;;;;10104160;28;83822;-72
2021/01/24 05:50:57;;;;;;;1.50;1.33;;;1.70;99.90;;;;;;10099311;28;84205;-74
2021/01/24 05:55:58;;;;;;;1.70;1.47;;;1.70;99.90;;;;;;10097614;28;84017;-72
2021/01/24 06:01:01;;;;;;;3.27;1.70;;;1.70;99.90;;;;;;10099361;28;83309;-73
2021/01/24 06:06:04;;;;;;;3.77;1.77;;;1.60;99.60;;;;;;10099313;28;84300;-72
2021/01/24 06:11:08;;;;;;;1.93;1.50;;;1.60;99.60;;;;;;10097335;28;84015;-72
2021/01/24 06:16:13;;;;;;;1.93;1.40;;;1.60;99.40;;;;;;10080181;28;88144;-72
2021/01/24 06:21:19;;;;;;;2.77;1.80;;;1.70;99.30;;;;;;10093299;28;83873;-72
2021/01/24 06:26:23;;;;;;;5.50;1.67;;;1.70;99.00;;;;;;10096385;28;84954;-72
2021/01/24 06:31:25;;;;;;;1.60;1.40;;;1.70;98.90;;;;;;10117774;28;84089;-72
2021/01/24 06:36:27;;;;;;;2.63;1.43;;;1.60;98.80;;;;;;10097223;28;82640;-72
2021/01/24 06:41:42;;;;;;;1.57;1.30;;;1.60;98.70;;;;;;10095891;28;84994;-72
2021/01/24 06:46:44;;;;;;;2.67;1.50;;;1.50;98.60;;;;;;10099439;28;83689;-72
2021/01/24 06:51:46;;;;;;;1.73;1.47;;;1.40;98.40;;;;;;10100721;28;85070;-72
2021/01/24 06:56:48;;;;;;;1.50;1.33;;;1.30;98.30;;;;;;10094275;28;83524;-72
2021/01/24 07:01:50;;;;;;;1.40;1.30;;;1.20;98.30;;;;;;10094224;28;83692;-73
2021/01/24 07:06:54;;;;;;;2.80;1.70;;;1.10;98.10;;;;;;10095625;28;84950;-73
2021/01/24 07:11:57;;;;;;;2.53;1.50;;;1.10;98.00;;;;;;10097735;28;84077;-73
2021/01/24 07:17:00;;;;;;;1.60;1.50;;;1.10;97.90;;;;;;10092703;28;85087;-73
2021/01/24 07:22:05;;;;;;;1.80;1.47;;;1.10;97.70;;;;;;10093473;28;84162;-72
2021/01/24 07:27:08;;;;;;;4.27;2.00;;;1.10;97.60;;;;;;10094092;28;82303;-73
2021/01/24 07:32:13;;;;;;;1.77;1.40;;;1.20;97.40;;;;;;10093649;28;85063;-73
2021/01/24 07:37:16;;;;;;;2.10;1.40;;;1.30;97.00;;;;;;10096085;28;84073;-73
2021/01/24 07:42:19;;;;;;;1.50;1.40;;;1.30;97.00;;;;;;10101042;28;82496;-72
2021/01/24 07:47:20;;;;;;;3.87;1.50;;;1.30;97.00;;;;;;10082794;28;83994;-74
2021/01/24 07:52:23;;;;;;;2.60;1.33;;;1.40;97.00;;;;;;10089975;28;83804;-73
2021/01/24 07:57:26;;;;;;;3.03;1.63;;;1.50;96.80;;;;;;10087010;28;86242;-73
2021/01/24 08:02:28;;;;;;;2.03;1.60;;;1.60;96.70;;;;;;10089771;28;84027;-74
2021/01/24 08:07:31;;;;;;;2.50;1.50;;;1.80;96.60;;;;;;10084851;28;83641;-74
2021/01/24 08:12:33;;;;;;;2.63;1.63;;;1.90;96.60;;;;;;10091084;28;83868;-73
2021/01/24 08:17:35;;;;;;;2.43;1.60;;;2.10;96.30;;;;;;10088873;28;83585;-73
2021/01/24 08:22:38;;;;;;;1.97;1.40;;;2.20;96.00;;;;;;10088780;28;84886;-74
2021/01/24 08:27:40;;;;;;;2.13;1.50;;;2.20;95.50;;;;;;10089403;28;83927;-73
2021/01/24 08:32:42;;;;;;;1.57;1.30;;;2.30;95.00;;;;;;10089062;28;83323;-73
2021/01/24 08:37:46;;;;;;;2.90;1.50;;;2.30;94.80;;;;;;10087611;28;83670;-74
2021/01/24 08:42:49;;;;;;;2.00;1.50;;;2.40;94.60;;;;;;10093174;28;84028;-74
2021/01/24 08:47:55;;;;;;;4.73;1.60;;;2.50;94.30;;;;;;10090191;28;84877;-73
2021/01/24 08:52:59;;;;;;;9.57;3.67;;;2.50;94.00;;;;;;10090200;28;83860;-73
2021/01/24 08:58:01;;;;;;;2.93;1.67;;;2.60;93.80;;;;;;10090107;28;84140;-73
2021/01/24 09:03:23;;;;;;;2.73;1.50;;;2.80;93.70;;;;;;10089029;28;84539;-74
2021/01/24 09:08:36;;;;;;;2.63;1.50;;;2.90;93.10;;;;;;10088291;28;84420;-74
2021/01/24 09:13:38;;;;;;;2.03;1.40;;;3.00;93.00;;;;;;10085889;28;84016;-72
2021/01/24 09:18:42;;;;;;;4.37;1.70;;;3.10;92.60;;;;;;10090541;28;83888;-73
2021/01/24 09:23:45;;;;;;;2.13;1.70;;;3.20;91.90;;;;;;10099358;28;84021;-73
2021/01/24 09:28:46;;;;;;;2.30;1.47;;;3.30;90.90;;;;;;10098678;28;83870;-73
2021/01/24 09:33:48;;;;;;;3.90;1.30;;;3.50;90.80;;;;;;10094287;28;83978;-72
2021/01/24 09:38:51;;;;;;;2.30;1.40;;;3.80;90.70;;;;;;10094048;28;84903;-72
2021/01/24 09:43:52;;;;;;;2.10;1.30;;;4.10;89.50;;;;;;10091581;28;84450;-72
2021/01/24 09:48:54;;;;;;;2.67;1.20;;;4.30;87.90;;;;;;10095938;28;84532;-73
2021/01/24 09:53:57;;;;;;;3.60;1.50;;;4.70;86.20;;;;;;10094946;28;83592;-73
2021/01/24 09:58:59;;;;;;;2.43;1.57;;;5.30;86.40;;;;;;10094281;28;85272;-72
2021/01/24 10:04:01;;;;;;;11.80;10.97;;;5.80;84.90;;;;;;10087606;28;83668;-73
2021/01/24 10:09:05;;;;;;;7.80;7.30;;;8.40;85.20;;;;;;10086444;28;85404;-74
2021/01/24 10:14:07;;;;;;;5.68;5.20;;;10.90;78.80;;;;;;10094681;28;82927;-73
2021/01/24 10:19:09;;;;;;;3.58;3.30;;;13.00;70.60;;;;;;10099713;28;83545;-73
2021/01/24 10:24:11;;;;;;;2.97;2.30;;;14.50;62.30;;;;;;10095502;28;85330;-73
2021/01/24 10:29:13;;;;;;;3.10;1.85;;;15.40;55.20;;;;;;10100216;28;84801;-73
2021/01/24 10:34:15;;;;;;;1.95;1.50;;;16.30;51.10;;;;;;10097687;28;83759;-73
2021/01/24 10:39:17;;;;;;;1.92;1.40;;;17.40;48.10;;;;;;10095091;28;85109;-73
2021/01/24 10:44:19;;;;;;;3.10;1.30;;;18.00;46.10;;;;;;10095161;28;84021;-72
2021/01/24 10:49:20;;;;;;;2.97;1.30;;;18.70;44.60;;;;;;10101305;28;83655;-73
2021/01/24 10:54:23;;;;;;;1.52;1.10;;;19.60;42.50;;;;;;10097606;28;84011;-72
2021/01/24 10:59:24;;;;;;;2.63;1.10;;;20.50;42.80;;;;;;10096730;28;84281;-73
2021/01/24 11:04:26;;;;;;;3.03;1.20;;;21.40;40.80;;;;;;10100554;28;84263;-72
2021/01/24 11:09:29;;;;;;;2.92;1.00;;;21.60;37.80;;;;;;10100608;28;83685;-73
2021/01/24 11:14:30;;;;;;;1.58;0.95;;;22.10;37.10;;;;;;10103565;28;83650;-72
2021/01/24 11:19:32;;;;;;;1.70;1.00;;;22.30;37.50;;;;;;10098102;28;84812;-73
2021/01/24 11:24:35;;;;;;;1.80;1.20;;;21.90;35.70;;;;;;10097813;28;83979;-73
2021/01/24 11:29:36;;;;;;;2.38;1.10;;;22.20;36.00;;;;;;10096235;28;84081;-73
2021/01/24 11:34:39;;;;;;;1.88;0.90;;;23.40;35.70;;;;;;10099040;28;84181;-73
2021/01/24 11:39:42;;;;;;;2.28;0.90;;;24.50;35.00;;;;;;10093247;28;84865;-73
2021/01/24 11:44:43;;;;;;;1.58;0.90;;;25.30;33.20;;;;;;10097848;28;85700;-73
2021/01/24 11:49:45;;;;;;;1.70;0.88;;;26.10;32.30;;;;;;10096660;28;83632;-73
2021/01/24 11:54:47;;;;;;;1.42;0.80;;;26.50;32.00;;;;;;10114905;28;84201;-73
2021/01/24 11:59:49;;;;;;;1.60;0.80;;;26.90;31.00;;;;;;10096782;28;84056;-73
2021/01/24 12:04:50;;;;;;;4.15;0.90;;;27.80;31.10;;;;;;10097063;28;84133;-73
2021/01/24 12:09:54;;;;;;;1.58;0.90;;;28.00;30.10;;;;;;10097909;28;85043;-73
2021/01/24 12:14:55;;;;;;;2.08;1.00;;;28.10;29.60;;;;;;10097300;28;85233;-74
2021/01/24 12:19:57;;;;;;;1.25;0.80;;;28.20;29.40;;;;;;10109328;28;83920;-73
2021/01/24 12:24:59;;;;;;;1.27;0.80;;;28.30;29.40;;;;;;10097276;28;83398;-73
2021/01/24 12:30:03;;;;;;;1.70;0.90;;;28.40;28.60;;;;;;10091617;28;83922;-73
2021/01/24 12:35:06;;;;;;;1.50;0.95;;;28.00;28.30;;;;;;10096551;28;83758;-73
2021/01/24 12:40:09;;;;;;;1.88;0.98;;;28.40;28.00;;;;;;10089098;28;83824;-73
2021/01/24 12:45:14;;;;;;;1.98;1.10;;;27.70;27.50;;;;;;10095314;28;83238;-72
2021/01/24 12:50:18;;;;;;;3.03;1.20;;;27.30;27.90;;;;;;10093969;28;84318;-72
2021/01/24 12:55:20;;;;;;;3.83;1.20;;;22.40;28.90;;;;;;10099624;28;85495;-71
2021/01/24 13:00:22;;;;;;;3.00;1.55;;;18.00;31.70;;;;;;10098839;28;84715;-71
2021/01/24 13:05:24;;;;;;;1.88;1.30;;;14.80;34.80;;;;;;10103356;28;83495;-73
2021/01/24 13:10:27;;;;;;;2.40;1.60;;;12.40;38.10;;;;;;10125652;28;84066;-73
2021/01/24 13:15:28;;;;;;;2.70;1.53;;;11.00;40.00;;;;;;10103173;28;85066;-72
2021/01/24 13:20:30;;;;;;;3.07;1.60;;;9.90;42.40;;;;;;10100868;28;84245;-72
2021/01/24 13:25:32;;;;;;;2.10;1.40;;;9.20;43.80;;;;;;10125028;28;83471;-75
2021/01/24 13:30:34;;;;;;;3.33;1.70;;;8.60;44.50;;;;;;10098679;28;83414;-74
2021/01/24 13:35:35;;;;;;;3.33;1.70;;;8.30;45.40;;;;;;10098719;28;83958;-74
2021/01/24 13:40:38;;;;;;;4.07;1.73;;;7.90;46.60;;;;;;10097532;28;83803;-72
2021/01/24 13:45:40;;;;;;;4.00;1.37;;;7.50;47.30;;;;;;10099473;28;84574;-75
2021/01/24 13:50:41;;;;;;;2.50;1.40;;;7.30;48.30;;;;;;10100614;28;84791;-74
2021/01/24 13:55:45;;;;;;;2.63;1.60;;;7.00;49.10;;;;;;10098677;28;82651;-74
2021/01/24 14:00:47;;;;;;;3.07;1.30;;;6.80;49.70;;;;;;10097673;28;83884;-74
2021/01/24 14:05:49;;;;;;;3.40;1.40;;;6.70;49.70;;;;;;10095132;28;83814;-74
2021/01/24 14:10:52;;;;;;;7.27;1.70;;;6.60;50.30;;;;;;10093878;28;84050;-72
2021/01/24 14:15:54;;;;;;;1.97;1.40;;;6.70;50.70;;;;;;10093810;28;83946;-72
2021/01/24 14:20:55;;;;;;;1.80;1.33;;;6.80;50.70;;;;;;10097087;28;85018;-72
2021/01/24 14:25:58;;;;;;;2.90;1.40;;;6.80;50.70;;;;;;10098514;28;84199;-71
2021/01/24 14:30:59;;;;;;;1.87;1.47;;;6.60;50.90;;;;;;10096029;28;83660;-73
2021/01/24 14:36:01;;;;;;;3.77;1.60;;;6.50;51.20;;;;;;10096080;28;83936;-73
2021/01/24 14:41:04;;;;;;;1.70;1.40;;;6.50;51.50;;;;;;10092709;28;85097;-74
2021/01/24 14:46:05;;;;;;;2.07;1.50;;;6.50;51.50;;;;;;10094579;28;84261;-73
2021/01/24 14:51:07;;;;;;;3.30;1.43;;;6.30;51.80;;;;;;10093393;28;83927;-73
2021/01/24 14:56:09;;;;;;;2.03;1.40;;;6.30;51.90;;;;;;10094589;28;84018;-73
2021/01/24 15:01:11;;;;;;;2.57;1.43;;;6.10;52.20;;;;;;10094648;28;83933;-73
2021/01/24 15:06:13;;;;;;;4.47;1.80;;;6.00;52.60;;;;;;10091846;28;83769;-74
2021/01/24 15:11:15;;;;;;;1.97;1.40;;;5.90;52.90;;;;;;10090188;28;84421;-73
2021/01/24 15:16:17;;;;;;;3.27;1.50;;;5.90;53.10;;;;;;10096273;28;83742;-75
2021/01/24 15:21:18;;;;;;;2.00;1.37;;;5.80;53.70;;;;;;10099498;28;83690;-74
2021/01/24 15:26:21;;;;;;;2.27;1.40;;;5.70;54.00;;;;;;10096463;28;83923;-74
2021/01/24 15:31:25;;;;;;;1.63;1.30;;;5.60;54.00;;;;;;10120828;28;85362;-74
2021/01/24 15:36:28;;;;;;;3.40;1.80;;;5.40;54.50;;;;;;10100458;28;83776;-74
2021/01/24 15:41:31;;;;;;;3.00;1.50;;;5.30;54.90;;;;;;10097677;28;83889;-72
2021/01/24 15:46:32;;;;;;;3.17;1.70;;;5.20;55.30;;;;;;10096759;28;84038;-72
2021/01/24 15:51:34;;;;;;;2.63;2.23;;;5.00;55.70;;;;;;10097286;28;85882;-73
2021/01/24 15:56:37;;;;;;;3.27;1.97;;;4.70;56.30;;;;;;10112236;28;83877;-73
2021/01/24 16:01:38;;;;;;;3.30;2.00;;;4.40;56.80;;;;;;10093742;28;84158;-72
2021/01/24 16:06:44;;;;;;;3.33;1.80;;;4.20;57.40;;;;;;10094000;28;83207;-74
2021/01/24 16:11:46;;;;;;;3.60;2.10;;;3.90;57.80;;;;;;10092238;28;86470;-72
2021/01/24 16:16:48;;;;;;;4.87;2.53;;;3.70;58.30;;;;;;10082863;28;83975;-74
2021/01/24 16:21:49;;;;;;;9.13;3.97;;;3.50;59.30;;;;;;10098634;28;85933;-71
2021/01/24 16:26:53;;;;;;;7.43;3.90;;;3.40;59.40;;;;;;10084245;28;83654;-72
2021/01/24 16:31:58;;;;;;;5.73;3.30;;;3.20;61.60;;;;;;10093992;28;84178;-73
2021/01/24 16:37:00;;;;;;;5.80;3.03;;;3.10;62.20;;;;;;10092367;28;84979;-70
2021/01/24 16:42:03;;;;;;;4.93;2.80;;;3.00;62.80;;;;;;10099649;28;83867;-72
2021/01/24 16:47:05;;;;;;;4.10;2.50;;;2.90;63.70;;;;;;10098909;28;84624;-73
2021/01/24 16:52:07;;;;;;;8.07;3.33;;;2.70;63.80;;;;;;10094948;28;85499;-72
2021/01/24 16:57:09;;;;;;;12.37;3.70;;;2.60;64.00;;;;;;10091687;28;85308;-71
2021/01/24 17:02:12;;;;;;;13.30;2.47;;;2.60;64.20;;;;;;10094373;28;84494;-71
2021/01/24 17:07:13;;;;;;;6.07;2.93;;;2.30;64.40;;;;;;10095089;28;84307;-71
2021/01/24 17:12:16;;;;;;;4.70;3.10;;;2.00;65.10;;;;;;10082556;28;85026;-71
2021/01/24 17:17:21;;;;;;;15.07;6.37;;;1.80;65.90;;;;;;10082954;28;83965;-70
2021/01/24 17:22:23;;;;;;;13.50;4.90;;;1.80;66.50;;;;;;10082888;28;84093;-71
2021/01/24 17:27:26;;;;;;;6.30;3.60;;;1.70;67.10;;;;;;10086510;28;85104;-72
2021/01/24 17:32:27;;;;;;;11.87;3.80;;;1.70;67.30;;;;;;10091727;28;83860;-71
2021/01/24 17:37:29;;;;;;;4.57;3.07;;;1.60;67.70;;;;;;10087204;28;83997;-73
2021/01/24 17:42:34;;;;;;;7.30;3.50;;;1.60;68.00;;;;;;10083476;28;87628;-74
2021/01/24 17:47:38;;;;;;;5.90;3.33;;;1.60;68.50;;;;;;10094513;28;83218;-73
2021/01/24 17:52:40;;;;;;;7.97;3.57;;;1.50;68.80;;;;;;10099281;28;84437;-73
2021/01/24 17:57:44;;;;;;;6.43;3.90;;;1.40;69.10;;;;;;10093438;28;83832;-72
2021/01/24 18:02:46;;;;;;;10.03;4.40;;;1.50;69.40;;;;;;10080123;28;86602;-74
2021/01/24 18:07:48;;;;;;;10.57;4.13;;;1.40;70.30;;;;;;10094186;28;83816;-72
2021/01/24 18:12:50;;;;;;;10.40;3.90;;;1.30;71.10;;;;;;10093618;28;83703;-72
2021/01/24 18:17:52;;;;;;;13.67;4.80;;;1.30;71.70;;;;;;10096714;28;84908;-73
2021/01/24 18:22:54;;;;;;;7.90;4.27;;;1.30;72.20;;;;;;10091622;28;84023;-73
2021/01/24 18:27:56;;;;;;;9.03;3.83;;;1.20;72.70;;;;;;10091879;28;83993;-72
2021/01/24 18:32:58;;;;;;;9.70;4.10;;;1.20;73.00;;;;;;10101721;28;83920;-72
2021/01/24 18:38:00;;;;;;;13.10;4.87;;;1.30;73.20;;;;;;10101636;28;83093;-72
2021/01/24 18:43:02;;;;;;;12.20;4.10;;;1.30;73.40;;;;;;10074288;28;84671;-72
2021/01/24 18:48:05;;;;;;;9.23;4.60;;;1.40;73.70;;;;;;10078227;28;83700;-72
2021/01/24 18:53:07;;;;;;;18.73;5.67;;;1.50;73.90;;;;;;10096941;28;84948;-72
2021/01/24 18:58:11;;;;;;;17.13;5.07;;;1.40;73.90;;;;;;10099100;28;83773;-72
2021/01/24 19:03:15;;;;;;;11.93;4.73;;;1.40;74.40;;;;;;10098318;28;83852;-72
2021/01/24 19:08:16;;;;;;;13.87;5.43;;;1.40;75.40;;;;;;10097434;28;85419;-72
2021/01/24 19:13:19;;;;;;;11.37;5.20;;;1.40;75.70;;;;;;10096466;28;83877;-73
2021/01/24 19:18:21;;;;;;;17.50;4.90;;;1.40;76.10;;;;;;10094117;28;82902;-74
2021/01/24 19:23:23;;;;;;;14.63;4.57;;;1.30;76.40;;;;;;10096418;28;84042;-73
2021/01/24 19:28:26;;;;;;;13.57;5.60;;;1.30;76.70;;;;;;10095895;28;83162;-72
2021/01/24 19:33:28;;;;;;;12.97;5.43;;;1.40;77.30;;;;;;10098178;28;83865;-72
2021/01/24 19:38:32;;;;;;;14.20;5.93;;;1.40;77.90;;;;;;10094929;28;83891;-72
2021/01/24 19:43:34;;;;;;;14.43;5.13;;;1.30;78.30;;;;;;10094255;28;84882;-72
2021/01/24 19:48:36;;;;;;;14.13;5.87;;;1.30;78.90;;;;;;10097587;28;84010;-72
2021/01/24 19:53:38;;;;;;;12.40;6.00;;;1.30;79.40;;;;;;10098085;28;82903;-72
2021/01/24 19:58:41;;;;;;;14.67;5.70;;;1.30;80.20;;;;;;10097754;28;84253;-72
2021/01/24 20:03:42;;;;;;;13.93;5.67;;;1.20;81.10;;;;;;10097619;28;83806;-72
2021/01/24 20:08:44;;;;;;;14.23;5.83;;;1.20;82.10;;;;;;10094944;28;84070;-72
2021/01/24 20:13:47;;;;;;;11.47;5.50;;;1.20;83.00;;;;;;10094250;28;83761;-72
2021/01/24 20:18:49;;;;;;;10.73;5.33;;;1.30;83.50;;;;;;10103198;28;84465;-72
2021/01/24 20:23:51;;;;;;;12.87;5.60;;;1.40;83.90;;;;;;10096224;28;84490;-72
2021/01/24 20:28:54;;;;;;;11.90;5.60;;;1.40;84.40;;;;;;10112471;28;82979;-73
2021/01/24 20:33:55;;;;;;;13.13;5.90;;;1.40;86.90;;;;;;10099414;28;84810;-72
2021/01/24 20:38:57;;;;;;;14.30;6.07;;;1.40;86.90;;;;;;10096720;28;84966;-71
2021/01/24 20:44:04;;;;;;;10.67;5.03;;;1.40;87.40;;;;;;10097434;28;83740;-72
2021/01/24 20:49:05;;;;;;;21.53;7.67;;;1.30;88.00;;;;;;10074223;28;85826;-72
2021/01/24 20:54:08;;;;;;;15.60;5.80;;;1.30;88.60;;;;;;10121087;28;83395;-73
2021/01/24 20:59:11;;;;;;;15.73;6.07;;;1.30;88.90;;;;;;10095529;28;84079;-73
2021/01/24 21:04:12;;;;;;;20.43;6.63;;;1.40;89.60;;;;;;10111670;28;83643;-73
2021/01/24 21:09:14;;;;;;;16.80;6.30;;;1.30;90.20;;;;;;10116453;28;83888;-73
2021/01/24 21:14:17;;;;;;;13.37;5.70;;;1.30;90.30;;;;;;10101113;28;83897;-73
2021/01/24 21:19:18;;;;;;;12.50;5.97;;;1.20;90.70;;;;;;10098411;28;83587;-73
2021/01/24 21:24:20;;;;;;;16.03;6.47;;;1.20;90.90;;;;;;10092593;28;86093;-73
2021/01/24 21:29:25;;;;;;;14.20;5.67;;;1.20;91.20;;;;;;10090277;28;83919;-73
2021/01/24 21:34:26;;;;;;;12.50;5.83;;;1.10;91.40;;;;;;10097295;28;84444;-73
2021/01/24 21:39:28;;;;;;;19.83;6.70;;;1.10;91.80;;;;;;10089621;28;83859;-73
2021/01/24 21:44:30;;;;;;;11.63;5.03;;;1.00;92.20;;;;;;10093758;28;85562;-73
2021/01/24 21:49:32;;;;;;;12.33;5.20;;;1.00;92.70;;;;;;10098565;28;83627;-73
2021/01/24 21:54:36;;;;;;;16.43;5.87;;;1.10;92.80;;;;;;10098597;28;84163;-73
2021/01/24 21:59:39;;;;;;;11.50;5.07;;;1.10;93.20;;;;;;10098689;28;83160;-73
2021/01/24 22:04:40;;;;;;;11.27;4.90;;;1.10;93.30;;;;;;10096055;28;83883;-73
2021/01/24 22:09:42;;;;;;;8.83;4.70;;;1.20;93.30;;;;;;10095461;28;84014;-73
2021/01/24 22:14:45;;;;;;;11.57;4.53;;;1.20;93.30;;;;;;10100079;28;85057;-73
2021/01/24 22:19:46;;;;;;;15.83;4.97;;;1.30;93.40;;;;;;10100744;28;84161;-73
2021/01/24 22:24:48;;;;;;;9.57;4.37;;;1.30;93.50;;;;;;10097492;28;85665;-73
2021/01/24 22:29:51;;;;;;;8.43;4.03;;;1.40;93.60;;;;;;10070435;28;84107;-73
2021/01/24 22:34:52;;;;;;;7.60;3.70;;;1.50;93.70;;;;;;10093632;28;84049;-73
2021/01/24 22:39:54;;;;;;;9.27;3.57;;;1.60;93.80;;;;;;10094767;28;83851;-73
2021/01/24 22:44:57;;;;;;;9.00;4.33;;;1.70;93.80;;;;;;10095069;28;84249;-73
2021/01/24 22:49:58;;;;;;;9.67;4.10;;;1.70;94.00;;;;;;10094242;28;83025;-73
2021/01/24 22:55:00;;;;;;;6.33;3.17;;;1.80;94.20;;;;;;10094841;28;83848;-73
2021/01/24 23:00:07;;;;;;;6.50;2.63;;;1.90;94.30;;;;;;10092572;28;87600;-73
2021/01/24 23:05:09;;;;;;;2.63;2.00;;;1.90;94.70;;;;;;10094603;28;85365;-73
2021/01/24 23:10:11;;;;;;;2.57;1.80;;;2.10;94.50;;;;;;10094406;28;85464;-73
2021/01/24 23:15:15;;;;;;;2.93;1.60;;;2.10;94.70;;;;;;10094437;28;84736;-73
2021/01/24 23:20:17;;;;;;;2.87;1.73;;;2.20;94.50;;;;;;10094934;28;84038;-73
2021/01/24 23:25:18;;;;;;;1.87;1.20;;;2.30;94.50;;;;;;10094927;28;83844;-73
2021/01/24 23:30:22;;;;;;;3.03;1.53;;;2.30;94.50;;;;;;10093983;28;83756;-73
2021/01/24 23:35:24;;;;;;;4.33;1.47;;;2.40;94.50;;;;;;10095338;28;84268;-73
2021/01/24 23:40:25;;;;;;;4.90;2.53;;;2.40;94.60;;;;;;10096364;28;83149;-73
2021/01/24 23:45:28;;;;;;;4.33;2.73;;;2.40;94.50;;;;;;10084323;28;85699;-73
2021/01/24 23:50:30;;;;;;;8.60;3.00;;;2.20;94.70;;;;;;10097859;28;83900;-73
2021/01/24 23:55:31;;;;;;;3.33;2.00;;;2.30;94.90;;;;;;10096095;28;85030;-73
